sensor_id;sensor_type;location;lat;lon;timestamp;pressure;altitude;pressure_sealevel;temperature
5571;BMP180;2808;51.240;6.794;2024-03-23T00:53:42;100514.00;;;8.00
5571;BMP180;2808;51.240;6.794;2024-03-23T00:56:08;100511.00;;;8.00
5571;BMP180;2808;51.240;6.794;2024-03-23T00:58:42;100499.00;;;8.10
5571;BMP180;2808;51.240;6.794;2024-03-23T01:01:12;100513.00;;;8.00
5571;BMP180;2808;51.240;6.794;2024-03-23T01:03:39;100500.00;;;8.10
5571;BMP180;2808;51.240;6.794;2024-03-23T01:06:06;100501.00;;;8.00
5571;BMP180;2808;51.240;6.794;2024-03-23T01:08:33;100513.00;;;8.10
5571;BMP180;2808;51.240;6.794;2024-03-23T01:11:01;100509.00;;;8.10
5571;BMP180;2808;51.240;6.794;2024-03-23T01:13:29;100508.00;;;8.10
5571;BMP180;2808;51.240;6.794;2024-03-23T01:15:56;100509.00;;;8.10
5571;BMP180;2808;51.240;6.794;2024-03-23T01:18:25;100496.00;;;8.00
5571;BMP180;2808;51.240;6.794;2024-03-23T01:20:52;100511.00;;;8.00
5571;BMP180;2808;51.240;6.794;2024-03-23T01:23:20;100498.00;;;8.00
5571;BMP180;2808;51.240;6.794;2024-03-23T01:25:52;100488.00;;;7.90
5571;BMP180;2808;51.240;6.794;2024-03-23T01:28:20;100506.00;;;8.00
5571;BMP180;2808;51.240;6.794;2024-03-23T01:30:47;100494.00;;;8.00
5571;BMP180;2808;51.240;6.794;2024-03-23T01:33:14;100501.00;;;8.00
5571;BMP180;2808;51.240;6.794;2024-03-23T01:35:42;100507.00;;;7.90
5571;BMP180;2808;51.240;6.794;2024-03-23T01:38:09;100505.00;;;7.90
5571;BMP180;2808;51.240;6.794;2024-03-23T01:40:36;100501.00;;;7.90
5571;BMP180;2808;51.240;6.794;2024-03-23T01:43:05;100495.00;;;7.80
5571;BMP180;2808;51.240;6.794;2024-03-23T01:45:32;100487.00;;;7.70
5571;BMP180;2808;51.240;6.794;2024-03-23T01:48:00;100501.00;;;7.70
5571;BMP180;2808;51.240;6.794;2024-03-23T01:50:27;100506.00;;;7.70
5571;BMP180;2808;51.240;6.794;2024-03-23T01:52:56;100502.00;;;7.70
5571;BMP180;2808;51.240;6.794;2024-03-23T01:55:22;100504.00;;;7.70
5571;BMP180;2808;51.240;6.794;2024-03-23T01:57:50;100501.00;;;7.70
5571;BMP180;2808;51.240;6.794;2024-03-23T02:00:19;100481.00;;;7.70
5571;BMP180;2808;51.240;6.794;2024-03-23T02:02:46;100482.00;;;7.80
5571;BMP180;2808;51.240;6.794;2024-03-23T02:05:13;100490.00;;;7.80
5571;BMP180;2808;51.240;6.794;2024-03-23T02:07:42;100481.00;;;7.80
5571;BMP180;2808;51.240;6.794;2024-03-23T02:10:11;100471.00;;;7.90
5571;BMP180;2808;51.240;6.794;2024-03-23T02:12:44;100472.00;;;7.90
5571;BMP180;2808;51.240;6.794;2024-03-23T02:15:10;100461.00;;;7.80
5571;BMP180;2808;51.240;6.794;2024-03-23T02:17:38;100455.00;;;7.80
5571;BMP180;2808;51.240;6.794;2024-03-23T02:20:05;100460.00;;;7.80
5571;BMP180;2808;51.240;6.794;2024-03-23T02:22:39;100448.00;;;7.70
5571;BMP180;2808;51.240;6.794;2024-03-23T02:25:07;100459.00;;;7.70
5571;BMP180;2808;51.240;6.794;2024-03-23T02:27:34;100447.00;;;7.80
5571;BMP180;2808;51.240;6.794;2024-03-23T02:30:02;100445.00;;;7.80
5571;BMP180;2808;51.240;6.794;2024-03-23T02:32:29;100450.00;;;7.90
5571;BMP180;2808;51.240;6.794;2024-03-23T02:34:56;100456.00;;;7.80
5571;BMP180;2808;51.240;6.794;2024-03-23T02:37:23;100466.00;;;7.80
5571;BMP180;2808;51.240;6.794;2024-03-23T02:39:50;100463.00;;;7.80
5571;BMP180;2808;51.240;6.794;2024-03-23T02:42:19;100462.00;;;7.80
5571;BMP180;2808;51.240;6.794;2024-03-23T02:44:46;100473.00;;;7.70
5571;BMP180;2808;51.240;6.794;2024-03-23T02:47:13;100472.00;;;7.80
5571;BMP180;2808;51.240;6.794;2024-03-23T02:49:40;100463.00;;;7.80
5571;BMP180;2808;51.240;6.794;2024-03-23T02:52:07;100457.00;;;7.70
5571;BMP180;2808;51.240;6.794;2024-03-23T02:54:34;100465.00;;;7.70
5571;BMP180;2808;51.240;6.794;2024-03-23T02:57:01;100459.00;;;7.60
5571;BMP180;2808;51.240;6.794;2024-03-23T02:59:29;100460.00;;;7.70
5571;BMP180;2808;51.240;6.794;2024-03-23T03:01:56;100463.00;;;7.70
5571;BMP180;2808;51.240;6.794;2024-03-23T03:04:23;100461.00;;;7.70
5571;BMP180;2808;51.240;6.794;2024-03-23T03:06:50;100471.00;;;7.70
5571;BMP180;2808;51.240;6.794;2024-03-23T03:09:17;100466.00;;;7.70
5571;BMP180;2808;51.240;6.794;2024-03-23T03:11:44;100460.00;;;7.70
5571;BMP180;2808;51.240;6.794;2024-03-23T03:14:11;100458.00;;;7.70
5571;BMP180;2808;51.240;6.794;2024-03-23T03:16:39;100455.00;;;7.70
5571;BMP180;2808;51.240;6.794;2024-03-23T03:19:06;100438.00;;;7.70
5571;BMP180;2808;51.240;6.794;2024-03-23T03:21:33;100427.00;;;7.70
5571;BMP180;2808;51.240;6.794;2024-03-23T03:24:00;100422.00;;;7.80
5571;BMP180;2808;51.240;6.794;2024-03-23T03:26:27;100450.00;;;7.70
5571;BMP180;2808;51.240;6.794;2024-03-23T03:28:54;100454.00;;;7.70
5571;BMP180;2808;51.240;6.794;2024-03-23T03:31:21;100447.00;;;7.70
5571;BMP180;2808;51.240;6.794;2024-03-23T03:33:50;100455.00;;;7.70
5571;BMP180;2808;51.240;6.794;2024-03-23T03:36:18;100463.00;;;7.70
5571;BMP180;2808;51.240;6.794;2024-03-23T03:38:44;100456.00;;;7.70
5571;BMP180;2808;51.240;6.794;2024-03-23T03:41:12;100444.00;;;7.70
5571;BMP180;2808;51.240;6.794;2024-03-23T03:43:38;100447.00;;;7.70
5571;BMP180;2808;51.240;6.794;2024-03-23T03:46:06;100464.00;;;7.70
5571;BMP180;2808;51.240;6.794;2024-03-23T03:48:34;100460.00;;;7.70
5571;BMP180;2808;51.240;6.794;2024-03-23T03:51:03;100462.00;;;7.70
5571;BMP180;2808;51.240;6.794;2024-03-23T03:53:30;100449.00;;;7.70
5571;BMP180;2808;51.240;6.794;2024-03-23T03:56:00;100448.00;;;7.70
5571;BMP180;2808;51.240;6.794;2024-03-23T03:58:26;100450.00;;;7.70
5571;BMP180;2808;51.240;6.794;2024-03-23T04:00:54;100453.00;;;7.70
5571;BMP180;2808;51.240;6.794;2024-03-23T04:03:21;100450.00;;;7.70
5571;BMP180;2808;51.240;6.794;2024-03-23T04:05:51;100455.00;;;7.70
5571;BMP180;2808;51.240;6.794;2024-03-23T04:08:19;100452.00;;;7.70
5571;BMP180;2808;51.240;6.794;2024-03-23T04:10:47;100456.00;;;7.70
5571;BMP180;2808;51.240;6.794;2024-03-23T04:13:13;100451.00;;;7.60
5571;BMP180;2808;51.240;6.794;2024-03-23T04:15:41;100458.00;;;7.70
5571;BMP180;2808;51.240;6.794;2024-03-23T04:18:07;100460.00;;;7.70
5571;BMP180;2808;51.240;6.794;2024-03-23T04:20:35;100443.00;;;7.70
5571;BMP180;2808;51.240;6.794;2024-03-23T04:23:01;100446.00;;;7.70
5571;BMP180;2808;51.240;6.794;2024-03-23T04:25:30;100442.00;;;7.70
5571;BMP180;2808;51.240;6.794;2024-03-23T04:27:58;100452.00;;;7.70
5571;BMP180;2808;51.240;6.794;2024-03-23T04:30:25;100451.00;;;7.60
5571;BMP180;2808;51.240;6.794;2024-03-23T04:32:54;100448.00;;;7.60
5571;BMP180;2808;51.240;6.794;2024-03-23T04:35:23;100443.00;;;7.60
5571;BMP180;2808;51.240;6.794;2024-03-23T04:37:51;100442.00;;;7.50
5571;BMP180;2808;51.240;6.794;2024-03-23T04:40:19;100448.00;;;7.50
5571;BMP180;2808;51.240;6.794;2024-03-23T04:42:48;100443.00;;;7.50
5571;BMP180;2808;51.240;6.794;2024-03-23T04:45:15;100444.00;;;7.40
5571;BMP180;2808;51.240;6.794;2024-03-23T04:47:43;100432.00;;;7.40
5571;BMP180;2808;51.240;6.794;2024-03-23T04:50:10;100445.00;;;7.40
5571;BMP180;2808;51.240;6.794;2024-03-23T04:52:37;100449.00;;;7.40
5571;BMP180;2808;51.240;6.794;2024-03-23T04:55:06;100446.00;;;7.40
5571;BMP180;2808;51.240;6.794;2024-03-23T04:57:36;100438.00;;;7.30
5571;BMP180;2808;51.240;6.794;2024-03-23T05:00:05;100437.00;;;7.30
5571;BMP180;2808;51.240;6.794;2024-03-23T05:02:43;100431.00;;;7.30
5571;BMP180;2808;51.240;6.794;2024-03-23T05:05:11;100435.00;;;7.30
5571;BMP180;2808;51.240;6.794;2024-03-23T05:07:38;100431.00;;;7.30
5571;BMP180;2808;51.240;6.794;2024-03-23T05:10:10;100434.00;;;7.30
5571;BMP180;2808;51.240;6.794;2024-03-23T05:12:37;100445.00;;;7.30
5571;BMP180;2808;51.240;6.794;2024-03-23T05:15:07;100447.00;;;7.40
5571;BMP180;2808;51.240;6.794;2024-03-23T05:17:34;100440.00;;;7.30
5571;BMP180;2808;51.240;6.794;2024-03-23T05:20:02;100441.00;;;7.30
5571;BMP180;2808;51.240;6.794;2024-03-23T05:22:29;100449.00;;;7.30
5571;BMP180;2808;51.240;6.794;2024-03-23T05:24:59;100457.00;;;7.30
5571;BMP180;2808;51.240;6.794;2024-03-23T05:27:26;100459.00;;;7.30
5571;BMP180;2808;51.240;6.794;2024-03-23T05:29:53;100453.00;;;7.20
5571;BMP180;2808;51.240;6.794;2024-03-23T05:32:21;100456.00;;;7.20
5571;BMP180;2808;51.240;6.794;2024-03-23T05:34:49;100457.00;;;7.20
5571;BMP180;2808;51.240;6.794;2024-03-23T05:37:18;100457.00;;;7.20
5571;BMP180;2808;51.240;6.794;2024-03-23T05:39:45;100465.00;;;7.10
5571;BMP180;2808;51.240;6.794;2024-03-23T05:42:12;100456.00;;;7.10
5571;BMP180;2808;51.240;6.794;2024-03-23T05:44:40;100454.00;;;7.20
5571;BMP180;2808;51.240;6.794;2024-03-23T05:47:07;100446.00;;;7.20
5571;BMP180;2808;51.240;6.794;2024-03-23T05:49:37;100453.00;;;7.20
5571;BMP180;2808;51.240;6.794;2024-03-23T05:52:03;100455.00;;;7.20
5571;BMP180;2808;51.240;6.794;2024-03-23T05:54:31;100455.00;;;7.20
5571;BMP180;2808;51.240;6.794;2024-03-23T05:56:58;100454.00;;;7.20
5571;BMP180;2808;51.240;6.794;2024-03-23T05:59:25;100452.00;;;7.30
5571;BMP180;2808;51.240;6.794;2024-03-23T06:01:53;100452.00;;;7.30
5571;BMP180;2808;51.240;6.794;2024-03-23T06:04:20;100460.00;;;7.30
5571;BMP180;2808;51.240;6.794;2024-03-23T06:06:48;100466.00;;;7.30
5571;BMP180;2808;51.240;6.794;2024-03-23T06:09:16;100454.00;;;7.30
5571;BMP180;2808;51.240;6.794;2024-03-23T06:11:43;100464.00;;;7.30
5571;BMP180;2808;51.240;6.794;2024-03-23T06:14:16;100472.00;;;7.30
5571;BMP180;2808;51.240;6.794;2024-03-23T06:16:42;100480.00;;;7.30
5571;BMP180;2808;51.240;6.794;2024-03-23T06:19:11;100477.00;;;7.30
5571;BMP180;2808;51.240;6.794;2024-03-23T06:21:42;100481.00;;;7.20
5571;BMP180;2808;51.240;6.794;2024-03-23T06:24:11;100474.00;;;7.20
5571;BMP180;2808;51.240;6.794;2024-03-23T06:26:38;100476.00;;;7.20
5571;BMP180;2808;51.240;6.794;2024-03-23T06:29:05;100475.00;;;7.30
5571;BMP180;2808;51.240;6.794;2024-03-23T06:31:32;100458.00;;;7.40
5571;BMP180;2808;51.240;6.794;2024-03-23T06:33:59;100466.00;;;7.50
5571;BMP180;2808;51.240;6.794;2024-03-23T06:36:27;100472.00;;;7.60
5571;BMP180;2808;51.240;6.794;2024-03-23T06:38:56;100474.00;;;7.60
5571;BMP180;2808;51.240;6.794;2024-03-23T06:41:25;100459.00;;;7.80
5571;BMP180;2808;51.240;6.794;2024-03-23T06:43:53;100469.00;;;7.90
5571;BMP180;2808;51.240;6.794;2024-03-23T06:46:19;100470.00;;;8.00
5571;BMP180;2808;51.240;6.794;2024-03-23T06:48:47;100476.00;;;8.20
5571;BMP180;2808;51.240;6.794;2024-03-23T06:51:13;100470.00;;;8.40
5571;BMP180;2808;51.240;6.794;2024-03-23T06:53:41;100478.00;;;8.60
5571;BMP180;2808;51.240;6.794;2024-03-23T06:56:07;100485.00;;;8.90
5571;BMP180;2808;51.240;6.794;2024-03-23T06:58:36;100478.00;;;9.20
5571;BMP180;2808;51.240;6.794;2024-03-23T07:01:03;100487.00;;;9.50
5571;BMP180;2808;51.240;6.794;2024-03-23T07:03:39;100475.00;;;9.80
5571;BMP180;2808;51.240;6.794;2024-03-23T07:06:06;100477.00;;;10.00
5571;BMP180;2808;51.240;6.794;2024-03-23T07:08:33;100486.00;;;10.10
5571;BMP180;2808;51.240;6.794;2024-03-23T07:11:00;100478.00;;;10.30
5571;BMP180;2808;51.240;6.794;2024-03-23T07:13:28;100482.00;;;10.40
5571;BMP180;2808;51.240;6.794;2024-03-23T07:15:56;100481.00;;;10.50
5571;BMP180;2808;51.240;6.794;2024-03-23T07:18:28;100490.00;;;10.70
5571;BMP180;2808;51.240;6.794;2024-03-23T07:20:56;100476.00;;;10.80
5571;BMP180;2808;51.240;6.794;2024-03-23T07:23:24;100476.00;;;11.00
5571;BMP180;2808;51.240;6.794;2024-03-23T07:25:59;100481.00;;;11.10
5571;BMP180;2808;51.240;6.794;2024-03-23T07:28:27;100476.00;;;11.10
5571;BMP180;2808;51.240;6.794;2024-03-23T07:31:06;100476.00;;;11.00
5571;BMP180;2808;51.240;6.794;2024-03-23T07:33:35;100480.00;;;11.00
5571;BMP180;2808;51.240;6.794;2024-03-23T07:36:02;100480.00;;;11.20
5571;BMP180;2808;51.240;6.794;2024-03-23T07:38:30;100481.00;;;11.40
5571;BMP180;2808;51.240;6.794;2024-03-23T07:41:06;100478.00;;;11.60
5571;BMP180;2808;51.240;6.794;2024-03-23T07:43:53;100476.00;;;11.80
5571;BMP180;2808;51.240;6.794;2024-03-23T07:46:26;100475.00;;;12.00
5571;BMP180;2808;51.240;6.794;2024-03-23T07:48:52;100486.00;;;12.00
5571;BMP180;2808;51.240;6.794;2024-03-23T07:51:23;100476.00;;;12.20
5571;BMP180;2808;51.240;6.794;2024-03-23T07:53:50;100481.00;;;12.00
5571;BMP180;2808;51.240;6.794;2024-03-23T07:56:19;100492.00;;;12.10
5571;BMP180;2808;51.240;6.794;2024-03-23T07:58:46;100493.00;;;12.40
5571;BMP180;2808;51.240;6.794;2024-03-23T08:01:15;100491.00;;;12.50
5571;BMP180;2808;51.240;6.794;2024-03-23T08:03:46;100487.00;;;12.70
5571;BMP180;2808;51.240;6.794;2024-03-23T08:06:19;100484.00;;;12.90
5571;BMP180;2808;51.240;6.794;2024-03-23T08:08:51;100490.00;;;13.00
5571;BMP180;2808;51.240;6.794;2024-03-23T08:11:25;100489.00;;;12.90
5571;BMP180;2808;51.240;6.794;2024-03-23T08:13:56;100488.00;;;13.00
5571;BMP180;2808;51.240;6.794;2024-03-23T08:16:27;100490.00;;;13.00
5571;BMP180;2808;51.240;6.794;2024-03-23T08:19:02;100479.00;;;13.00
5571;BMP180;2808;51.240;6.794;2024-03-23T08:21:31;100481.00;;;13.10
5571;BMP180;2808;51.240;6.794;2024-03-23T08:23:58;100482.00;;;13.10
5571;BMP180;2808;51.240;6.794;2024-03-23T08:26:32;100488.00;;;12.90
5571;BMP180;2808;51.240;6.794;2024-03-23T08:29:04;100474.00;;;12.40
5571;BMP180;2808;51.240;6.794;2024-03-23T08:31:35;100488.00;;;12.30
5571;BMP180;2808;51.240;6.794;2024-03-23T08:34:04;100495.00;;;12.10
5571;BMP180;2808;51.240;6.794;2024-03-23T08:36:34;100484.00;;;12.00
5571;BMP180;2808;51.240;6.794;2024-03-23T08:39:38;100492.00;;;11.80
5571;BMP180;2808;51.240;6.794;2024-03-23T08:42:40;100475.00;;;11.90
5571;BMP180;2808;51.240;6.794;2024-03-23T08:45:12;100480.00;;;11.90
5571;BMP180;2808;51.240;6.794;2024-03-23T08:47:54;100479.00;;;11.80
5571;BMP180;2808;51.240;6.794;2024-03-23T08:50:32;100470.00;;;11.60
5571;BMP180;2808;51.240;6.794;2024-03-23T08:53:17;100480.00;;;11.30
5571;BMP180;2808;51.240;6.794;2024-03-23T08:55:59;100476.00;;;11.00
5571;BMP180;2808;51.240;6.794;2024-03-23T08:58:31;100490.00;;;10.90
5571;BMP180;2808;51.240;6.794;2024-03-23T09:04:39;100486.00;;;10.80
5571;BMP180;2808;51.240;6.794;2024-03-23T09:07:09;100498.00;;;11.00
5571;BMP180;2808;51.240;6.794;2024-03-23T09:09:41;100487.00;;;11.00
5571;BMP180;2808;51.240;6.794;2024-03-23T09:12:24;100493.00;;;11.20
5571;BMP180;2808;51.240;6.794;2024-03-23T09:14:51;100494.00;;;11.60
5571;BMP180;2808;51.240;6.794;2024-03-23T09:17:19;100487.00;;;11.60
5571;BMP180;2808;51.240;6.794;2024-03-23T09:19:49;100493.00;;;11.70
5571;BMP180;2808;51.240;6.794;2024-03-23T09:22:18;100495.00;;;11.90
5571;BMP180;2808;51.240;6.794;2024-03-23T09:24:45;100490.00;;;12.20
5571;BMP180;2808;51.240;6.794;2024-03-23T09:59:46;100471.00;;;10.80
5571;BMP180;2808;51.240;6.794;2024-03-23T10:02:33;100478.00;;;10.90
5571;BMP180;2808;51.240;6.794;2024-03-23T10:58:22;100539.00;;;8.00
5571;BMP180;2808;51.240;6.794;2024-03-23T11:01:00;100536.00;;;8.00
5571;BMP180;2808;51.240;6.794;2024-03-23T11:03:33;100531.00;;;8.10
5571;BMP180;2808;51.240;6.794;2024-03-23T11:06:03;100540.00;;;8.30
5571;BMP180;2808;51.240;6.794;2024-03-23T11:08:34;100534.00;;;8.30
5571;BMP180;2808;51.240;6.794;2024-03-23T11:11:20;100531.00;;;8.30
5571;BMP180;2808;51.240;6.794;2024-03-23T11:13:53;100539.00;;;8.30
5571;BMP180;2808;51.240;6.794;2024-03-23T11:16:27;100536.00;;;8.30
5571;BMP180;2808;51.240;6.794;2024-03-23T11:21:53;100528.00;;;8.60
5571;BMP180;2808;51.240;6.794;2024-03-23T11:24:22;100531.00;;;8.70
5571;BMP180;2808;51.240;6.794;2024-03-23T11:27:22;100521.00;;;8.60
5571;BMP180;2808;51.240;6.794;2024-03-23T11:30:11;100514.00;;;8.70
5571;BMP180;2808;51.240;6.794;2024-03-23T11:32:38;100518.00;;;8.70
5571;BMP180;2808;51.240;6.794;2024-03-23T11:35:07;100512.00;;;8.70
5571;BMP180;2808;51.240;6.794;2024-03-23T11:37:36;100515.00;;;8.80
5571;BMP180;2808;51.240;6.794;2024-03-23T11:40:20;100506.00;;;8.90
5571;BMP180;2808;51.240;6.794;2024-03-23T11:42:50;100510.00;;;9.10
5571;BMP180;2808;51.240;6.794;2024-03-23T11:45:50;100504.00;;;9.20
5571;BMP180;2808;51.240;6.794;2024-03-23T11:48:22;100504.00;;;9.20
5571;BMP180;2808;51.240;6.794;2024-03-23T11:50:51;100493.00;;;9.40
5571;BMP180;2808;51.240;6.794;2024-03-23T11:53:22;100528.00;;;9.40
5571;BMP180;2808;51.240;6.794;2024-03-23T11:55:50;100554.00;;;9.10
5571;BMP180;2808;51.240;6.794;2024-03-23T11:58:19;100535.00;;;8.60
5571;BMP180;2808;51.240;6.794;2024-03-23T12:00:54;100503.00;;;8.20
5571;BMP180;2808;51.240;6.794;2024-03-23T12:03:22;100493.00;;;8.10
5571;BMP180;2808;51.240;6.794;2024-03-23T12:05:52;100513.00;;;8.10
5571;BMP180;2808;51.240;6.794;2024-03-23T12:08:22;100524.00;;;8.20
5571;BMP180;2808;51.240;6.794;2024-03-23T12:10:53;100514.00;;;8.40
5571;BMP180;2808;51.240;6.794;2024-03-23T12:13:21;100508.00;;;8.60
5571;BMP180;2808;51.240;6.794;2024-03-23T12:15:51;100515.00;;;8.80
5571;BMP180;2808;51.240;6.794;2024-03-23T12:18:24;100512.00;;;8.90
5571;BMP180;2808;51.240;6.794;2024-03-23T12:20:53;100510.00;;;9.00
5571;BMP180;2808;51.240;6.794;2024-03-23T12:23:23;100503.00;;;9.00
5571;BMP180;2808;51.240;6.794;2024-03-23T12:25:54;100499.00;;;9.00
5571;BMP180;2808;51.240;6.794;2024-03-23T12:28:32;100498.00;;;8.90
5571;BMP180;2808;51.240;6.794;2024-03-23T12:31:12;100496.00;;;8.90
5571;BMP180;2808;51.240;6.794;2024-03-23T12:33:39;100491.00;;;9.10
5571;BMP180;2808;51.240;6.794;2024-03-23T12:36:11;100495.00;;;9.30
5571;BMP180;2808;51.240;6.794;2024-03-23T12:38:40;100495.00;;;9.30
5571;BMP180;2808;51.240;6.794;2024-03-23T12:41:22;100490.00;;;9.30
5571;BMP180;2808;51.240;6.794;2024-03-23T12:44:04;100492.00;;;9.30
5571;BMP180;2808;51.240;6.794;2024-03-23T12:46:41;100484.00;;;9.20
5571;BMP180;2808;51.240;6.794;2024-03-23T12:49:18;100492.00;;;9.10
5571;BMP180;2808;51.240;6.794;2024-03-23T12:52:04;100492.00;;;9.10
5571;BMP180;2808;51.240;6.794;2024-03-23T12:54:49;100491.00;;;9.10
5571;BMP180;2808;51.240;6.794;2024-03-23T12:57:32;100489.00;;;9.20
5571;BMP180;2808;51.240;6.794;2024-03-23T13:00:19;100481.00;;;9.20
5571;BMP180;2808;51.240;6.794;2024-03-23T13:03:04;100483.00;;;9.30
5571;BMP180;2808;51.240;6.794;2024-03-23T13:05:35;100476.00;;;9.50
5571;BMP180;2808;51.240;6.794;2024-03-23T13:08:03;100479.00;;;9.60
5571;BMP180;2808;51.240;6.794;2024-03-23T13:10:35;100477.00;;;9.70
5571;BMP180;2808;51.240;6.794;2024-03-23T13:13:25;100495.00;;;9.70
5571;BMP180;2808;51.240;6.794;2024-03-23T13:15:52;100500.00;;;9.70
5571;BMP180;2808;51.240;6.794;2024-03-23T13:18:24;100504.00;;;9.40
5571;BMP180;2808;51.240;6.794;2024-03-23T13:20:57;100504.00;;;8.90
5571;BMP180;2808;51.240;6.794;2024-03-23T13:23:36;100487.00;;;8.60
5571;BMP180;2808;51.240;6.794;2024-03-23T13:26:59;100477.00;;;8.40
5571;BMP180;2808;51.240;6.794;2024-03-23T13:30:02;100472.00;;;8.40
5571;BMP180;2808;51.240;6.794;2024-03-23T13:33:10;100471.00;;;8.60
5571;BMP180;2808;51.240;6.794;2024-03-23T13:36:06;100463.00;;;8.90
5571;BMP180;2808;51.240;6.794;2024-03-23T13:42:28;100456.00;;;9.50
5571;BMP180;2808;51.240;6.794;2024-03-23T13:45:15;100450.00;;;9.60
5571;BMP180;2808;51.240;6.794;2024-03-23T13:51:08;100440.00;;;9.60
5571;BMP180;2808;51.240;6.794;2024-03-23T13:53:41;100439.00;;;9.50
5571;BMP180;2808;51.240;6.794;2024-03-23T13:56:24;100446.00;;;9.50
5571;BMP180;2808;51.240;6.794;2024-03-23T13:58:56;100453.00;;;9.40
5571;BMP180;2808;51.240;6.794;2024-03-23T14:01:26;100455.00;;;9.40
5571;BMP180;2808;51.240;6.794;2024-03-23T14:03:56;100448.00;;;9.40
5571;BMP180;2808;51.240;6.794;2024-03-23T14:06:28;100455.00;;;9.30
5571;BMP180;2808;51.240;6.794;2024-03-23T14:08:55;100453.00;;;9.50
5571;BMP180;2808;51.240;6.794;2024-03-23T14:11:23;100451.00;;;9.70
5571;BMP180;2808;51.240;6.794;2024-03-23T14:13:52;100454.00;;;9.80
5571;BMP180;2808;51.240;6.794;2024-03-23T14:16:20;100440.00;;;9.80
5571;BMP180;2808;51.240;6.794;2024-03-23T14:18:51;100445.00;;;9.90
5571;BMP180;2808;51.240;6.794;2024-03-23T14:21:24;100433.00;;;10.00
5571;BMP180;2808;51.240;6.794;2024-03-23T14:23:55;100437.00;;;10.10
5571;BMP180;2808;51.240;6.794;2024-03-23T14:26:27;100424.00;;;10.10
5571;BMP180;2808;51.240;6.794;2024-03-23T14:28:59;100432.00;;;10.00
5571;BMP180;2808;51.240;6.794;2024-03-23T14:31:32;100444.00;;;9.90
5571;BMP180;2808;51.240;6.794;2024-03-23T14:34:08;100430.00;;;9.80
5571;BMP180;2808;51.240;6.794;2024-03-23T14:36:40;100457.00;;;9.50
5571;BMP180;2808;51.240;6.794;2024-03-23T14:39:12;100453.00;;;9.40
5571;BMP180;2808;51.240;6.794;2024-03-23T14:41:42;100441.00;;;9.20
5571;BMP180;2808;51.240;6.794;2024-03-23T14:44:14;100435.00;;;9.10
5571;BMP180;2808;51.240;6.794;2024-03-23T14:46:42;100425.00;;;9.00
5571;BMP180;2808;51.240;6.794;2024-03-23T14:49:14;100434.00;;;9.00
5571;BMP180;2808;51.240;6.794;2024-03-23T14:51:43;100420.00;;;9.00
5571;BMP180;2808;51.240;6.794;2024-03-23T14:54:11;100426.00;;;9.00
5571;BMP180;2808;51.240;6.794;2024-03-23T14:56:39;100424.00;;;9.10
5571;BMP180;2808;51.240;6.794;2024-03-23T14:59:05;100427.00;;;9.20
5571;BMP180;2808;51.240;6.794;2024-03-23T15:01:34;100416.00;;;9.40
5571;BMP180;2808;51.240;6.794;2024-03-23T15:04:00;100427.00;;;9.40
5571;BMP180;2808;51.240;6.794;2024-03-23T15:06:31;100427.00;;;9.40
5571;BMP180;2808;51.240;6.794;2024-03-23T15:09:00;100424.00;;;9.30
5571;BMP180;2808;51.240;6.794;2024-03-23T15:11:38;100411.00;;;9.30
5571;BMP180;2808;51.240;6.794;2024-03-23T15:14:06;100419.00;;;9.40
5571;BMP180;2808;51.240;6.794;2024-03-23T15:16:34;100413.00;;;9.40
5571;BMP180;2808;51.240;6.794;2024-03-23T15:19:01;100415.00;;;9.30
5571;BMP180;2808;51.240;6.794;2024-03-23T15:21:31;100411.00;;;9.20
5571;BMP180;2808;51.240;6.794;2024-03-23T15:23:58;100412.00;;;9.20
5571;BMP180;2808;51.240;6.794;2024-03-23T15:26:28;100412.00;;;9.20
5571;BMP180;2808;51.240;6.794;2024-03-23T15:28:56;100397.00;;;9.30
5571;BMP180;2808;51.240;6.794;2024-03-23T15:31:38;100394.00;;;9.40
5571;BMP180;2808;51.240;6.794;2024-03-23T15:34:19;100402.00;;;9.30
5571;BMP180;2808;51.240;6.794;2024-03-23T15:36:48;100395.00;;;9.30
5571;BMP180;2808;51.240;6.794;2024-03-23T15:39:16;100396.00;;;9.30
5571;BMP180;2808;51.240;6.794;2024-03-23T15:41:45;100405.00;;;9.30
5571;BMP180;2808;51.240;6.794;2024-03-23T15:44:20;100405.00;;;9.20
5571;BMP180;2808;51.240;6.794;2024-03-23T15:46:48;100399.00;;;9.20
5571;BMP180;2808;51.240;6.794;2024-03-23T15:49:17;100399.00;;;9.10
5571;BMP180;2808;51.240;6.794;2024-03-23T15:51:45;100405.00;;;9.10
5571;BMP180;2808;51.240;6.794;2024-03-23T15:54:13;100399.00;;;9.00
5571;BMP180;2808;51.240;6.794;2024-03-23T15:56:44;100400.00;;;9.00
5571;BMP180;2808;51.240;6.794;2024-03-23T15:59:12;100387.00;;;9.00
5571;BMP180;2808;51.240;6.794;2024-03-23T16:01:46;100380.00;;;8.90
5571;BMP180;2808;51.240;6.794;2024-03-23T16:04:15;100392.00;;;8.90
5571;BMP180;2808;51.240;6.794;2024-03-23T16:06:46;100379.00;;;8.90
5571;BMP180;2808;51.240;6.794;2024-03-23T16:09:15;100379.00;;;8.90
5571;BMP180;2808;51.240;6.794;2024-03-23T16:11:44;100383.00;;;8.80
5571;BMP180;2808;51.240;6.794;2024-03-23T16:14:12;100366.00;;;8.70
5571;BMP180;2808;51.240;6.794;2024-03-23T16:16:42;100372.00;;;8.70
5571;BMP180;2808;51.240;6.794;2024-03-23T16:19:11;100362.00;;;8.60
5571;BMP180;2808;51.240;6.794;2024-03-23T16:21:40;100362.00;;;8.60
5571;BMP180;2808;51.240;6.794;2024-03-23T16:24:07;100364.00;;;8.60
5571;BMP180;2808;51.240;6.794;2024-03-23T16:26:35;100364.00;;;8.60
5571;BMP180;2808;51.240;6.794;2024-03-23T16:29:03;100354.00;;;8.60
5571;BMP180;2808;51.240;6.794;2024-03-23T16:31:35;100363.00;;;8.60
5571;BMP180;2808;51.240;6.794;2024-03-23T16:34:02;100360.00;;;8.60
5571;BMP180;2808;51.240;6.794;2024-03-23T16:36:31;100361.00;;;8.80
5571;BMP180;2808;51.240;6.794;2024-03-23T16:38:58;100356.00;;;8.80
5571;BMP180;2808;51.240;6.794;2024-03-23T16:41:26;100361.00;;;8.80
5571;BMP180;2808;51.240;6.794;2024-03-23T16:43:57;100357.00;;;8.70
5571;BMP180;2808;51.240;6.794;2024-03-23T16:46:25;100351.00;;;8.70
5571;BMP180;2808;51.240;6.794;2024-03-23T16:48:53;100357.00;;;8.60
5571;BMP180;2808;51.240;6.794;2024-03-23T16:51:21;100355.00;;;8.60
5571;BMP180;2808;51.240;6.794;2024-03-23T16:53:49;100347.00;;;8.60
5571;BMP180;2808;51.240;6.794;2024-03-23T16:56:17;100352.00;;;8.50
5571;BMP180;2808;51.240;6.794;2024-03-23T16:58:44;100352.00;;;8.50
5571;BMP180;2808;51.240;6.794;2024-03-23T17:01:12;100350.00;;;8.50
5571;BMP180;2808;51.240;6.794;2024-03-23T17:03:47;100346.00;;;8.40
5571;BMP180;2808;51.240;6.794;2024-03-23T17:06:21;100336.00;;;8.30
5571;BMP180;2808;51.240;6.794;2024-03-23T17:08:50;100352.00;;;8.30
5571;BMP180;2808;51.240;6.794;2024-03-23T17:11:21;100350.00;;;8.20
5571;BMP180;2808;51.240;6.794;2024-03-23T17:13:51;100355.00;;;8.20
5571;BMP180;2808;51.240;6.794;2024-03-23T17:16:20;100346.00;;;8.20
5571;BMP180;2808;51.240;6.794;2024-03-23T17:18:48;100347.00;;;8.20
5571;BMP180;2808;51.240;6.794;2024-03-23T17:21:19;100351.00;;;8.20
5571;BMP180;2808;51.240;6.794;2024-03-23T17:23:46;100356.00;;;8.30